Time;durP1;ratioP1;P1;durP2;ratioP2;P2;SDS_P1;SDS_P2;PMS_P1;PMS_P2;Temp;Humidity;BMP_temperature;BMP_pressure;BME280_temperature;BME280_humidity;BME280_pressure;Samples;Min_cycle;Max_cycle;Signal;HPM_P1;HPM_P2
2024/03/19 05:06:13;;;;;;;0.50;0.50;;;7.30;99.90;;;;;;5646836;23;20235;-60
2024/03/19 05:08:39;;;;;;;0.40;0.40;;;7.30;99.90;;;;;;4918913;29;20264;-60
2024/03/19 05:11:05;;;;;;;0.50;0.50;;;7.30;99.90;;;;;;4919162;29;20178;-60
2024/03/19 05:13:31;;;;;;;0.30;0.30;;;7.30;99.90;;;;;;4919950;29;20264;-60
2024/03/19 05:15:57;;;;;;;0.38;0.38;;;7.30;99.90;;;;;;4919780;29;20227;-60
2024/03/19 05:18:23;;;;;;;0.30;0.30;;;7.30;99.90;;;;;;4920424;29;20594;-60
2024/03/19 05:20:48;;;;;;;0.40;0.40;;;7.30;99.90;;;;;;4920192;29;20287;-60
2024/03/19 05:23:15;;;;;;;0.40;0.40;;;7.30;99.90;;;;;;4920201;29;20497;-60
2024/03/19 05:25:42;;;;;;;0.40;0.40;;;7.30;99.90;;;;;;4919533;29;20242;-60
2024/03/19 05:28:08;;;;;;;0.43;0.43;;;7.30;99.90;;;;;;4919597;29;20551;-61
2024/03/19 05:30:34;;;;;;;0.40;0.40;;;7.30;99.90;;;;;;4919888;29;20170;-61
2024/03/19 05:33:00;;;;;;;0.37;0.37;;;7.30;99.90;;;;;;4920002;29;20189;-60
2024/03/19 05:35:26;;;;;;;0.30;0.30;;;7.20;99.90;;;;;;4919318;29;20764;-60
2024/03/19 05:37:52;;;;;;;0.40;0.40;;;7.20;99.90;;;;;;4919398;29;20261;-59
2024/03/19 05:40:19;;;;;;;0.33;0.33;;;7.20;99.90;;;;;;4919677;29;20629;-60
2024/03/19 05:42:44;;;;;;;0.60;0.60;;;7.10;99.90;;;;;;4919796;29;20206;-60
2024/03/19 05:45:13;;;;;;;0.40;0.40;;;7.10;99.90;;;;;;4919768;29;20198;-61
2024/03/19 05:47:40;;;;;;;0.30;0.30;;;7.10;99.90;;;;;;4920914;29;20178;-63
2024/03/19 05:50:08;;;;;;;0.30;0.30;;;7.20;99.90;;;;;;4932064;29;20174;-63
2024/03/19 05:52:34;;;;;;;0.32;0.32;;;7.30;99.90;;;;;;4934379;29;20186;-60
2024/03/19 05:55:00;;;;;;;0.32;0.32;;;7.30;99.90;;;;;;4933225;29;20201;-61
2024/03/19 05:57:26;;;;;;;0.40;0.40;;;7.40;99.90;;;;;;4922909;29;20194;-61
2024/03/19 05:59:51;;;;;;;0.70;0.70;;;7.60;99.90;;;;;;4921668;29;20174;-60
2024/03/19 06:02:17;;;;;;;0.40;0.40;;;7.70;99.90;;;;;;4920620;29;20264;-60
2024/03/19 06:04:42;;;;;;;0.30;0.30;;;7.90;99.90;;;;;;4919225;29;20210;-61
2024/03/19 06:07:08;;;;;;;0.30;0.30;;;8.10;99.90;;;;;;4919241;29;20201;-60
2024/03/19 06:09:34;;;;;;;0.40;0.40;;;8.40;99.90;;;;;;4919494;29;20238;-60
2024/03/19 06:11:59;;;;;;;0.40;0.40;;;8.60;99.90;;;;;;4919687;29;20174;-63
2024/03/19 06:14:25;;;;;;;0.40;0.40;;;8.90;99.90;;;;;;4919692;29;20178;-64
2024/03/19 06:16:50;;;;;;;0.30;0.30;;;9.10;99.90;;;;;;4916710;29;20198;-62
2024/03/19 06:19:16;;;;;;;0.30;0.30;;;9.40;99.90;;;;;;4922066;29;20537;-62
2024/03/19 06:21:43;;;;;;;1.58;0.82;;;9.60;99.90;;;;;;4927445;29;20187;-61
2024/03/19 06:24:09;;;;;;;0.55;0.55;;;9.80;99.90;;;;;;4926654;29;20194;-61
2024/03/19 06:26:34;;;;;;;0.30;0.30;;;9.80;99.90;;;;;;4932619;29;20202;-62
2024/03/19 06:29:00;;;;;;;0.30;0.30;;;9.90;99.90;;;;;;4918814;29;20510;-63
2024/03/19 06:31:26;;;;;;;0.30;0.30;;;9.80;99.90;;;;;;4918541;29;20180;-62
2024/03/19 06:33:52;;;;;;;0.30;0.30;;;9.80;99.90;;;;;;4918626;29;20420;-62
2024/03/19 06:36:18;;;;;;;0.30;0.30;;;10.10;99.90;;;;;;4918191;29;20227;-62
2024/03/19 06:38:43;;;;;;;0.30;0.30;;;10.30;99.90;;;;;;4918464;29;20183;-61
2024/03/19 06:41:09;;;;;;;0.20;0.20;;;10.60;99.90;;;;;;4918309;29;20233;-62
2024/03/19 06:43:36;;;;;;;0.47;0.47;;;11.00;99.90;;;;;;4916053;29;20192;-62
2024/03/19 06:46:02;;;;;;;0.30;0.30;;;11.50;99.90;;;;;;4916446;29;20799;-61
2024/03/19 06:48:28;;;;;;;0.50;0.50;;;12.00;99.90;;;;;;4920672;29;20456;-60
2024/03/19 06:50:56;;;;;;;0.40;0.40;;;12.40;99.90;;;;;;4935667;29;20209;-60
2024/03/19 06:53:22;;;;;;;0.30;0.30;;;12.60;99.90;;;;;;4936994;29;20416;-61
2024/03/19 06:55:48;;;;;;;0.80;0.80;;;12.90;99.90;;;;;;4936516;29;20209;-63
2024/03/19 06:58:14;;;;;;;0.40;0.40;;;12.90;99.90;;;;;;4937045;29;20426;-61
2024/03/19 07:00:40;;;;;;;0.30;0.30;;;13.10;99.90;;;;;;4937015;29;20899;-62
2024/03/19 07:03:06;;;;;;;0.93;0.50;;;13.30;99.90;;;;;;4936842;29;20532;-61
2024/03/19 07:05:32;;;;;;;0.50;0.50;;;13.50;99.90;;;;;;4936254;29;20477;-62
2024/03/19 07:07:58;;;;;;;0.40;0.40;;;13.60;99.90;;;;;;4936681;29;20191;-61
2024/03/19 07:10:24;;;;;;;0.40;0.40;;;13.60;99.90;;;;;;4936714;29;20416;-62
2024/03/19 07:12:49;;;;;;;0.33;0.33;;;13.70;99.90;;;;;;4936294;29;20440;-61
2024/03/19 07:15:15;;;;;;;0.30;0.30;;;14.00;99.90;;;;;;4936381;29;20413;-62
2024/03/19 07:17:42;;;;;;;0.30;0.30;;;14.30;99.90;;;;;;4936723;29;20185;-62
2024/03/19 07:20:12;;;;;;;0.30;0.30;;;14.70;99.90;;;;;;4936693;29;20229;-60
2024/03/19 07:22:40;;;;;;;0.40;0.40;;;15.10;99.90;;;;;;4920416;29;20467;-61
2024/03/19 07:25:07;;;;;;;0.30;0.30;;;15.60;99.90;;;;;;4900409;29;20481;-60
2024/03/19 07:27:37;;;;;;;0.80;0.80;;;16.10;99.90;;;;;;4911948;29;20561;-61
2024/03/19 07:30:08;;;;;;;0.40;0.40;;;16.60;99.90;;;;;;4904583;29;20471;-59
2024/03/19 07:32:34;;;;;;;0.50;0.50;;;17.10;99.90;;;;;;4912327;29;20484;-60
2024/03/19 07:35:00;;;;;;;0.53;0.53;;;17.50;99.90;;;;;;4917054;29;20541;-60
2024/03/19 07:37:25;;;;;;;0.30;0.30;;;18.20;99.90;;;;;;4917189;29;20438;-60
2024/03/19 07:39:55;;;;;;;0.67;0.67;;;18.70;99.90;;;;;;4916809;29;20217;-61
2024/03/19 07:42:21;;;;;;;0.50;0.40;;;18.90;99.90;;;;;;4917186;29;20645;-60
2024/03/19 07:44:47;;;;;;;1.20;1.20;;;19.00;99.90;;;;;;4916756;29;20440;-61
2024/03/19 07:47:12;;;;;;;0.40;0.40;;;19.20;99.90;;;;;;4916903;29;20417;-59
2024/03/19 07:49:39;;;;;;;0.30;0.30;;;19.50;99.90;;;;;;4917080;29;20638;-60
2024/03/19 07:52:05;;;;;;;0.40;0.40;;;19.90;99.90;;;;;;4924788;29;20590;-60
2024/03/19 07:54:30;;;;;;;0.40;0.40;;;20.00;99.90;;;;;;4917135;29;20432;-65
2024/03/19 07:56:56;;;;;;;0.83;0.83;;;20.30;99.90;;;;;;4916788;29;20443;-62
2024/03/19 07:59:22;;;;;;;0.60;0.60;;;20.40;99.90;;;;;;4917170;29;20470;-61
2024/03/19 08:01:51;;;;;;;0.40;0.40;;;20.90;99.90;;;;;;4916968;29;20668;-61
2024/03/19 08:04:18;;;;;;;0.30;0.30;;;21.50;99.90;;;;;;4915493;29;20257;-62
2024/03/19 08:06:44;;;;;;;0.30;0.30;;;21.80;98.70;;;;;;4916081;29;20469;-60
2024/03/19 08:09:10;;;;;;;0.90;0.90;;;21.80;98.20;;;;;;4917098;29;20419;-59
2024/03/19 08:11:36;;;;;;;0.50;0.40;;;21.00;97.10;;;;;;4921001;29;20500;-59
2024/03/19 08:14:01;;;;;;;0.47;0.37;;;20.40;98.30;;;;;;4935820;29;20547;-63
2024/03/19 08:16:27;;;;;;;0.50;0.50;;;20.00;99.90;;;;;;4935246;29;20224;-61
2024/03/19 08:18:54;;;;;;;0.40;0.40;;;19.80;99.90;;;;;;4931145;29;20200;-62
2024/03/19 08:21:21;;;;;;;0.30;0.20;;;19.50;99.90;;;;;;4916822;29;20394;-62
2024/03/19 08:23:48;;;;;;;0.30;0.30;;;19.30;99.90;;;;;;4916656;29;20570;-61
2024/03/19 08:26:14;;;;;;;0.50;0.50;;;19.10;99.90;;;;;;4916042;29;20942;-60
2024/03/19 08:28:41;;;;;;;0.30;0.30;;;18.90;99.90;;;;;;4916758;29;20726;-61
2024/03/19 08:31:09;;;;;;;0.60;0.60;;;18.40;99.90;;;;;;4916736;29;20406;-62
2024/03/19 08:33:36;;;;;;;0.40;0.40;;;18.40;99.90;;;;;;4916560;29;20414;-61
2024/03/19 08:36:01;;;;;;;0.83;0.40;;;18.30;99.90;;;;;;4916312;29;20462;-62
2024/03/19 08:38:27;;;;;;;0.30;0.30;;;18.60;99.90;;;;;;4919919;29;20410;-62
2024/03/19 08:40:53;;;;;;;0.70;0.70;;;19.00;99.90;;;;;;4920547;29;20279;-62
2024/03/19 08:43:19;;;;;;;0.30;0.30;;;19.20;99.90;;;;;;4920763;29;20234;-62
2024/03/19 08:45:45;;;;;;;0.30;0.20;;;19.70;99.90;;;;;;4920092;29;20208;-60
2024/03/19 08:48:11;;;;;;;0.30;0.30;;;20.50;99.90;;;;;;4919497;29;20739;-60
2024/03/19 08:50:36;;;;;;;1.17;0.57;;;21.00;98.70;;;;;;4919328;29;20406;-60
2024/03/19 08:53:02;;;;;;;0.30;0.30;;;21.60;98.70;;;;;;4920910;29;20178;-63
2024/03/19 08:55:27;;;;;;;0.53;0.53;;;22.00;97.50;;;;;;4920240;29;20210;-61
2024/03/19 08:57:53;;;;;;;0.80;0.80;;;22.00;97.70;;;;;;4920476;29;20313;-62
2024/03/19 09:00:19;;;;;;;0.80;0.43;;;22.20;96.70;;;;;;4920438;29;20213;-63
2024/03/19 09:02:45;;;;;;;0.30;0.30;;;22.10;96.60;;;;;;4920212;29;20264;-61
2024/03/19 09:05:11;;;;;;;0.73;0.43;;;21.40;96.50;;;;;;4918575;29;20289;-60
2024/03/19 09:07:39;;;;;;;0.40;0.40;;;21.00;96.60;;;;;;4920105;29;20556;-61
2024/03/19 09:10:09;;;;;;;0.30;0.30;;;20.60;97.10;;;;;;4920029;29;20403;-60
2024/03/19 09:12:35;;;;;;;0.30;0.30;;;20.00;98.00;;;;;;4920529;29;20814;-62
2024/03/19 09:15:01;;;;;;;0.60;0.60;;;19.60;98.80;;;;;;4919834;29;20526;-63
2024/03/19 09:17:27;;;;;;;0.53;0.53;;;19.40;98.70;;;;;;4919888;29;20506;-60
2024/03/19 09:19:52;;;;;;;0.30;0.30;;;19.00;99.30;;;;;;4920185;29;20967;-63
2024/03/19 09:22:18;;;;;;;0.40;0.40;;;18.90;99.90;;;;;;4920245;29;20189;-63
2024/03/19 09:24:44;;;;;;;0.37;0.37;;;19.10;99.90;;;;;;4919704;29;20728;-61
2024/03/19 09:27:09;;;;;;;0.33;0.33;;;19.20;99.90;;;;;;4920043;29;20186;-60
2024/03/19 09:29:35;;;;;;;0.40;0.40;;;19.30;99.90;;;;;;4919842;29;20283;-63
2024/03/19 09:32:02;;;;;;;0.30;0.20;;;19.30;99.70;;;;;;4919577;29;20185;-61
2024/03/19 09:34:28;;;;;;;1.47;0.67;;;19.50;99.90;;;;;;4919285;29;20421;-61
2024/03/19 09:36:54;;;;;;;0.30;0.30;;;19.60;99.90;;;;;;4919471;29;20968;-62
2024/03/19 09:39:20;;;;;;;0.30;0.30;;;19.50;99.60;;;;;;4918307;29;20439;-63
2024/03/19 09:42:03;;;;;;;0.87;0.87;;;19.40;99.80;;;;;;4919705;29;20250;-63
2024/03/19 09:44:30;;;;;;;0.60;0.60;;;19.10;99.90;;;;;;4919347;29;20905;-63
2024/03/19 09:46:57;;;;;;;0.30;0.27;;;18.80;99.90;;;;;;4919482;29;20888;-64
2024/03/19 09:49:28;;;;;;;1.47;0.77;;;18.90;99.90;;;;;;4906756;29;20390;-61
2024/03/19 09:51:55;;;;;;;0.57;0.57;;;18.80;99.90;;;;;;4917006;29;20389;-61
2024/03/19 09:54:22;;;;;;;0.40;0.40;;;18.80;99.90;;;;;;4919058;29;20422;-62
2024/03/19 09:56:49;;;;;;;0.30;0.30;;;18.80;99.90;;;;;;4918741;29;20433;-61
2024/03/19 09:59:15;;;;;;;0.30;0.30;;;18.50;99.90;;;;;;4906132;29;20392;-61
2024/03/19 10:01:43;;;;;;;0.30;0.20;;;18.50;99.90;;;;;;4900465;29;20382;-61
2024/03/19 10:04:14;;;;;;;0.30;0.30;;;18.50;99.90;;;;;;4917645;29;20198;-62
2024/03/19 10:06:40;;;;;;;2.10;0.83;;;18.50;99.90;;;;;;4918864;29;20457;-63
2024/03/19 10:09:06;;;;;;;0.30;0.20;;;18.60;99.90;;;;;;4919463;29;20807;-62
2024/03/19 10:11:33;;;;;;;0.30;0.30;;;18.70;99.90;;;;;;4918574;29;20486;-63
2024/03/19 10:13:59;;;;;;;0.53;0.53;;;18.70;99.90;;;;;;4932788;29;20389;-61
2024/03/19 10:16:24;;;;;;;0.50;0.50;;;19.00;99.90;;;;;;4916944;29;20520;-62
2024/03/19 10:18:50;;;;;;;0.30;0.30;;;19.20;99.60;;;;;;4918927;29;20186;-62
2024/03/19 10:21:16;;;;;;;0.40;0.40;;;19.30;99.90;;;;;;4918299;29;20563;-61
2024/03/19 10:23:43;;;;;;;0.60;0.50;;;19.70;99.90;;;;;;4918871;29;20417;-61
2024/03/19 10:26:08;;;;;;;0.30;0.20;;;19.90;99.40;;;;;;4918503;29;20190;-61
2024/03/19 10:28:36;;;;;;;0.50;0.50;;;20.30;99.60;;;;;;4918860;29;20475;-63
2024/03/19 10:31:04;;;;;;;0.30;0.30;;;20.90;98.30;;;;;;4918622;29;20226;-61
2024/03/19 10:33:31;;;;;;;0.30;0.30;;;21.60;97.20;;;;;;4918858;29;20381;-61
2024/03/19 10:35:58;;;;;;;0.30;0.27;;;22.10;96.10;;;;;;4918188;29;20464;-61
2024/03/19 10:38:26;;;;;;;0.80;0.80;;;22.80;95.50;;;;;;4918729;29;20389;-63
2024/03/19 10:40:53;;;;;;;0.40;0.40;;;23.30;93.60;;;;;;4918497;29;20406;-62
2024/03/19 10:43:19;;;;;;;0.40;0.40;;;23.30;92.90;;;;;;4918630;29;20396;-60
2024/03/19 10:45:47;;;;;;;0.50;0.50;;;23.20;92.90;;;;;;4918318;29;20443;-62
2024/03/19 10:48:13;;;;;;;0.40;0.30;;;23.30;92.80;;;;;;4918384;29;20414;-61
2024/03/19 10:50:41;;;;;;;1.07;1.07;;;23.50;93.00;;;;;;4918591;29;20735;-62
2024/03/19 10:53:27;;;;;;;0.30;0.30;;;23.50;91.50;;;;;;4918341;29;20393;-62
2024/03/19 10:55:57;;;;;;;0.60;0.60;;;23.30;91.60;;;;;;4918179;29;20405;-61
2024/03/19 10:58:23;;;;;;;0.37;0.30;;;23.10;91.80;;;;;;4918153;29;20382;-62
2024/03/19 11:00:51;;;;;;;0.40;0.40;;;23.20;92.70;;;;;;4917097;29;20514;-61
2024/03/19 11:03:18;;;;;;;0.30;0.30;;;22.90;92.50;;;;;;4916950;29;20393;-60
2024/03/19 11:05:56;;;;;;;0.30;0.30;;;23.10;92.20;;;;;;4917725;29;20853;-63
2024/03/19 11:08:21;;;;;;;0.30;0.30;;;23.00;91.70;;;;;;4917241;29;20393;-61
2024/03/19 11:10:48;;;;;;;0.30;0.20;;;22.90;91.30;;;;;;4917994;29;20927;-61
2024/03/19 11:13:24;;;;;;;0.30;0.20;;;22.90;92.10;;;;;;4918050;29;20171;-61
2024/03/19 11:15:49;;;;;;;0.50;0.50;;;22.70;91.30;;;;;;4917709;29;20437;-61
2024/03/19 11:18:15;;;;;;;0.30;0.30;;;22.20;91.30;;;;;;4917636;29;20432;-61
2024/03/19 11:20:46;;;;;;;0.40;0.37;;;21.30;92.20;;;;;;4918247;29;20270;-62
2024/03/19 11:23:19;;;;;;;0.30;0.20;;;20.60;93.10;;;;;;4917933;29;20234;-62
2024/03/19 11:25:47;;;;;;;0.30;0.20;;;20.00;94.10;;;;;;4917092;29;21004;-61
2024/03/19 11:28:29;;;;;;;0.30;0.30;;;19.50;94.70;;;;;;4917680;29;20505;-62
2024/03/19 11:30:56;;;;;;;0.60;0.60;;;19.20;95.00;;;;;;4917718;29;20390;-63
2024/03/19 11:33:23;;;;;;;0.50;0.50;;;18.80;95.70;;;;;;4916312;29;20420;-61
2024/03/19 11:35:50;;;;;;;0.30;0.30;;;18.40;96.50;;;;;;4917295;29;20808;-63
2024/03/19 11:38:17;;;;;;;0.40;0.40;;;18.30;96.70;;;;;;4917662;29;20773;-63
2024/03/19 11:40:42;;;;;;;0.40;0.40;;;18.30;97.00;;;;;;4917694;29;20428;-62
2024/03/19 11:43:19;;;;;;;0.30;0.20;;;18.10;97.30;;;;;;4917619;29;20748;-62
2024/03/19 11:45:46;;;;;;;0.30;0.30;;;18.10;98.20;;;;;;4915798;29;20470;-61
2024/03/19 11:48:22;;;;;;;0.30;0.30;;;18.20;98.80;;;;;;4917520;29;20426;-62
2024/03/19 11:50:49;;;;;;;0.63;0.40;;;18.50;98.50;;;;;;4917411;29;20376;-62
2024/03/19 11:53:17;;;;;;;0.30;0.30;;;18.70;98.70;;;;;;4917648;29;20633;-62
2024/03/19 11:55:44;;;;;;;0.30;0.30;;;18.80;97.60;;;;;;4916917;29;20494;-64
2024/03/19 11:58:10;;;;;;;0.30;0.30;;;18.80;97.20;;;;;;4917441;29;20429;-62
2024/03/19 12:00:36;;;;;;;0.30;0.30;;;18.60;97.00;;;;;;4917341;29;20410;-61
2024/03/19 12:03:03;;;;;;;0.30;0.20;;;18.50;97.30;;;;;;4917288;29;20780;-63
2024/03/19 12:05:29;;;;;;;0.50;0.50;;;18.50;98.20;;;;;;4916602;29;20523;-63
2024/03/19 12:07:56;;;;;;;0.30;0.20;;;18.40;97.30;;;;;;4916850;29;20526;-63
2024/03/19 12:10:24;;;;;;;0.30;0.30;;;18.40;98.20;;;;;;4916956;29;20304;-61
2024/03/19 12:12:54;;;;;;;0.30;0.30;;;18.40;98.90;;;;;;4916624;29;20416;-63
2024/03/19 12:15:22;;;;;;;0.30;0.30;;;18.40;97.30;;;;;;4916767;29;20511;-61
2024/03/19 12:17:48;;;;;;;0.30;0.20;;;18.40;97.60;;;;;;4916775;29;20427;-60
2024/03/19 12:20:15;;;;;;;0.30;0.30;;;18.30;97.50;;;;;;4916788;29;20406;-62
2024/03/19 12:22:45;;;;;;;0.30;0.30;;;18.20;97.30;;;;;;4917027;29;20460;-63
2024/03/19 12:25:11;;;;;;;0.30;0.30;;;18.20;98.60;;;;;;4916451;29;20444;-60
2024/03/19 12:27:40;;;;;;;0.30;0.27;;;18.30;98.70;;;;;;4916880;29;20385;-61
2024/03/19 12:30:09;;;;;;;0.37;0.37;;;18.50;98.70;;;;;;4916846;29;20415;-62
2024/03/19 12:32:47;;;;;;;0.30;0.30;;;18.70;98.80;;;;;;4916617;29;20395;-62
2024/03/19 12:35:13;;;;;;;0.30;0.20;;;18.80;97.70;;;;;;4916514;29;20411;-62
2024/03/19 12:37:39;;;;;;;0.30;0.20;;;18.70;97.80;;;;;;4916543;29;20781;-62
2024/03/19 12:40:11;;;;;;;0.67;0.30;;;18.70;97.20;;;;;;4916936;29;20559;-60
2024/03/19 12:42:37;;;;;;;0.83;0.40;;;18.70;97.30;;;;;;4916840;29;20781;-61
2024/03/19 12:45:04;;;;;;;0.30;0.30;;;18.70;96.70;;;;;;4916253;29;20461;-62
2024/03/19 12:47:29;;;;;;;0.40;0.40;;;18.80;97.40;;;;;;4916717;29;20448;-62
2024/03/19 12:49:55;;;;;;;0.30;0.20;;;18.90;97.40;;;;;;4916686;29;20389;-61
2024/03/19 12:52:24;;;;;;;0.30;0.20;;;19.00;97.10;;;;;;4916301;29;20178;-61
2024/03/19 12:54:49;;;;;;;0.40;0.40;;;18.90;96.60;;;;;;4916433;29;20261;-60
2024/03/19 12:57:15;;;;;;;0.30;0.30;;;18.90;96.70;;;;;;4916832;29;20827;-61
2024/03/19 12:59:42;;;;;;;0.40;0.40;;;18.90;97.50;;;;;;4916604;29;20241;-60
2024/03/19 13:02:09;;;;;;;0.30;0.30;;;18.90;97.20;;;;;;4916656;29;20446;-58
2024/03/19 13:04:35;;;;;;;0.40;0.40;;;18.90;97.80;;;;;;4916286;29;20597;-63
2024/03/19 13:07:01;;;;;;;0.30;0.30;;;19.00;98.00;;;;;;4916171;29;20420;-61
2024/03/19 13:09:26;;;;;;;0.30;0.30;;;19.00;97.50;;;;;;4916468;29;20166;-61
2024/03/19 13:11:53;;;;;;;0.30;0.30;;;19.10;97.30;;;;;;4916720;29;20185;-60
2024/03/19 13:14:19;;;;;;;0.30;0.30;;;19.10;97.60;;;;;;4916514;29;20187;-62
2024/03/19 13:16:45;;;;;;;0.30;0.20;;;19.10;97.40;;;;;;4916240;29;20764;-63
2024/03/19 13:19:11;;;;;;;0.30;0.30;;;19.10;96.60;;;;;;4916571;29;20373;-63
2024/03/19 13:21:37;;;;;;;0.30;0.20;;;19.20;96.30;;;;;;4916677;29;20179;-63
2024/03/19 13:24:03;;;;;;;0.40;0.40;;;19.00;95.70;;;;;;4917352;29;20440;-62
2024/03/19 13:26:29;;;;;;;0.30;0.30;;;18.90;96.00;;;;;;4919707;29;20553;-61
2024/03/19 13:28:55;;;;;;;0.30;0.20;;;19.00;96.60;;;;;;4920098;29;20414;-60
2024/03/19 13:31:21;;;;;;;0.30;0.30;;;18.90;95.70;;;;;;4920096;29;20175;-63
2024/03/19 13:33:47;;;;;;;0.43;0.37;;;18.90;95.30;;;;;;4919944;29;20762;-62
2024/03/19 13:36:13;;;;;;;0.40;0.30;;;18.80;95.50;;;;;;4919727;29;20444;-62
2024/03/19 13:38:38;;;;;;;0.30;0.30;;;18.70;96.30;;;;;;4919801;29;20171;-63
2024/03/19 13:41:06;;;;;;;0.30;0.20;;;18.60;96.80;;;;;;4919803;29;20883;-61
2024/03/19 13:43:31;;;;;;;0.40;0.37;;;18.70;96.90;;;;;;4913446;29;20223;-63
2024/03/19 13:46:01;;;;;;;0.30;0.30;;;18.70;96.70;;;;;;4904299;29;20483;-63
2024/03/19 13:48:27;;;;;;;0.30;0.30;;;18.70;96.70;;;;;;4901037;29;20184;-62
2024/03/19 13:50:53;;;;;;;0.30;0.20;;;18.70;96.20;;;;;;4901572;29;20394;-60
2024/03/19 13:53:19;;;;;;;0.50;0.50;;;18.50;95.60;;;;;;4902120;29;20430;-63
2024/03/19 13:55:47;;;;;;;0.30;0.30;;;18.50;95.80;;;;;;4914417;29;20210;-61
2024/03/19 13:58:13;;;;;;;0.37;0.37;;;18.40;96.00;;;;;;4902707;29;20423;-64
2024/03/19 14:00:41;;;;;;;0.30;0.30;;;18.30;95.80;;;;;;4900946;29;20393;-60
2024/03/19 14:03:11;;;;;;;0.37;0.37;;;18.30;96.00;;;;;;4900185;29;20494;-61
2024/03/19 14:05:44;;;;;;;0.30;0.30;;;18.20;95.60;;;;;;4900756;29;20448;-61
2024/03/19 14:08:11;;;;;;;0.30;0.20;;;18.20;96.00;;;;;;4900385;29;20417;-61
2024/03/19 14:10:37;;;;;;;0.30;0.30;;;18.30;95.60;;;;;;4900653;29;20510;-63
2024/03/19 14:13:05;;;;;;;0.30;0.30;;;18.30;95.80;;;;;;4900936;29;20430;-62
2024/03/19 14:15:34;;;;;;;0.30;0.30;;;18.30;95.30;;;;;;4905236;29;20428;-62
2024/03/19 14:18:00;;;;;;;0.30;0.30;;;18.20;96.20;;;;;;4912766;29;20393;-62
2024/03/19 14:20:25;;;;;;;0.30;0.30;;;18.20;95.90;;;;;;4907014;29;20499;-64
2024/03/19 14:22:52;;;;;;;0.50;0.30;;;18.10;96.00;;;;;;4895931;29;20274;-63
2024/03/19 14:25:18;;;;;;;0.30;0.30;;;18.10;95.90;;;;;;4901494;29;20214;-62
2024/03/19 14:27:45;;;;;;;0.30;0.30;;;18.00;95.60;;;;;;4900856;29;20394;-62
2024/03/19 14:30:14;;;;;;;0.30;0.30;;;18.00;95.60;;;;;;4903921;29;20401;-61
2024/03/19 14:32:42;;;;;;;0.30;0.30;;;18.00;95.40;;;;;;4908719;29;20422;-61
2024/03/19 14:35:08;;;;;;;0.50;0.50;;;18.00;95.10;;;;;;4917697;29;20426;-62
2024/03/19 14:37:34;;;;;;;0.30;0.27;;;18.10;95.60;;;;;;4902169;29;20421;-62
2024/03/19 14:39:59;;;;;;;0.30;0.30;;;18.00;96.10;;;;;;4911103;29;20426;-63
2024/03/19 14:42:25;;;;;;;0.40;0.40;;;17.90;96.10;;;;;;4918956;29;20186;-62
2024/03/19 14:44:51;;;;;;;0.30;0.30;;;17.80;95.90;;;;;;4907511;29;20206;-62
2024/03/19 14:47:16;;;;;;;0.30;0.30;;;17.70;96.00;;;;;;4919732;29;20198;-59
2024/03/19 14:49:43;;;;;;;0.30;0.30;;;17.60;95.20;;;;;;4919927;29;20277;-63
2024/03/19 14:52:09;;;;;;;0.30;0.30;;;17.50;95.30;;;;;;4917517;29;20182;-62
2024/03/19 14:54:34;;;;;;;0.30;0.30;;;17.60;95.30;;;;;;4916726;29;20393;-65
2024/03/19 14:57:00;;;;;;;0.30;0.20;;;17.50;95.80;;;;;;4913429;29;20440;-64
2024/03/19 14:59:26;;;;;;;0.50;0.50;;;17.50;96.30;;;;;;4906612;29;20187;-61
2024/03/19 15:01:51;;;;;;;0.30;0.30;;;17.50;96.60;;;;;;4897730;29;20238;-62
2024/03/19 15:04:18;;;;;;;0.30;0.30;;;17.50;97.00;;;;;;4898466;29;20214;-62
2024/03/19 15:06:45;;;;;;;0.30;0.20;;;17.50;96.90;;;;;;4903136;29;20281;-63
2024/03/19 15:09:10;;;;;;;0.50;0.50;;;17.50;96.90;;;;;;4900318;29;20401;-62
2024/03/19 15:11:37;;;;;;;0.30;0.30;;;17.50;97.00;;;;;;4906841;29;20404;-61
2024/03/19 15:14:02;;;;;;;0.87;0.67;;;17.50;97.20;;;;;;4916517;29;20198;-64
2024/03/19 15:16:28;;;;;;;0.30;0.30;;;17.50;97.40;;;;;;4916379;29;20888;-63
2024/03/19 15:18:54;;;;;;;0.50;0.50;;;17.50;96.90;;;;;;4917840;29;20213;-63
2024/03/19 15:21:19;;;;;;;0.30;0.30;;;17.30;97.00;;;;;;4918560;29;20648;-65
2024/03/19 15:23:45;;;;;;;0.30;0.30;;;17.30;97.20;;;;;;4918641;29;20193;-64
2024/03/19 15:26:11;;;;;;;0.30;0.30;;;17.30;97.30;;;;;;4917939;29;20620;-65
2024/03/19 15:28:36;;;;;;;0.30;0.27;;;17.20;97.30;;;;;;4918832;29;20545;-63
2024/03/19 15:31:02;;;;;;;0.30;0.30;;;17.20;97.20;;;;;;4903128;29;20303;-65
2024/03/19 15:33:27;;;;;;;0.30;0.20;;;17.20;96.50;;;;;;4899133;29;20186;-64
2024/03/19 15:35:53;;;;;;;0.30;0.30;;;17.20;96.10;;;;;;4898249;29;20642;-65
2024/03/19 15:38:21;;;;;;;0.30;0.30;;;17.10;96.40;;;;;;4912878;29;20538;-62
2024/03/19 15:40:50;;;;;;;0.30;0.30;;;17.00;96.80;;;;;;4899571;29;20190;-65
2024/03/19 15:43:15;;;;;;;0.30;0.30;;;17.00;96.90;;;;;;4909083;29;20418;-63
2024/03/19 15:45:42;;;;;;;0.30;0.30;;;17.00;96.80;;;;;;4915168;29;20480;-65
2024/03/19 15:48:08;;;;;;;0.30;0.30;;;17.00;97.00;;;;;;4915531;29;20280;-64
2024/03/19 15:50:34;;;;;;;0.30;0.30;;;17.00;97.10;;;;;;4910204;29;20514;-64
2024/03/19 15:53:00;;;;;;;0.30;0.30;;;17.00;96.90;;;;;;4898745;29;20202;-63
2024/03/19 15:55:26;;;;;;;0.30;0.30;;;16.90;97.10;;;;;;4908673;29;20901;-63
2024/03/19 15:57:52;;;;;;;0.30;0.20;;;16.90;97.40;;;;;;4917015;29;20484;-63
2024/03/19 16:00:20;;;;;;;0.30;0.20;;;16.90;97.40;;;;;;4916640;29;20190;-63
2024/03/19 16:02:47;;;;;;;0.30;0.30;;;16.90;97.80;;;;;;4916323;29;20194;-62
2024/03/19 16:05:15;;;;;;;2.10;0.67;;;16.90;97.40;;;;;;4917151;29;20515;-63
2024/03/19 16:07:45;;;;;;;0.30;0.30;;;16.90;97.40;;;;;;4917441;29;20445;-64
2024/03/19 16:10:12;;;;;;;0.30;0.23;;;16.80;97.20;;;;;;4917308;29;20477;-62
2024/03/19 16:12:38;;;;;;;0.30;0.20;;;16.80;97.20;;;;;;4917406;29;20407;-61
2024/03/19 16:15:04;;;;;;;0.30;0.30;;;16.80;97.30;;;;;;4917437;29;20484;-62
2024/03/19 16:17:31;;;;;;;0.30;0.20;;;16.70;97.40;;;;;;4917295;29;20438;-62
2024/03/19 16:19:57;;;;;;;0.30;0.30;;;16.70;97.20;;;;;;4917370;29;20826;-62
2024/03/19 16:22:23;;;;;;;0.30;0.30;;;16.70;97.20;;;;;;4917335;29;20550;-63
2024/03/19 16:24:54;;;;;;;0.30;0.20;;;16.60;97.40;;;;;;4916851;29;20206;-64
2024/03/19 16:27:20;;;;;;;0.30;0.30;;;16.50;97.60;;;;;;4915486;29;20206;-65
2024/03/19 16:29:47;;;;;;;0.30;0.30;;;16.50;97.70;;;;;;4917439;29;20418;-64
2024/03/19 16:32:16;;;;;;;0.30;0.30;;;16.40;97.90;;;;;;4904680;29;20423;-63
2024/03/19 16:34:42;;;;;;;0.30;0.30;;;16.30;97.90;;;;;;4898093;29;20433;-64
2024/03/19 16:37:08;;;;;;;0.30;0.30;;;16.30;98.00;;;;;;4898409;29;20444;-63
2024/03/19 16:39:34;;;;;;;0.90;0.60;;;16.30;98.00;;;;;;4903503;29;20417;-65
2024/03/19 16:42:00;;;;;;;0.30;0.30;;;16.20;98.30;;;;;;4903823;29;20471;-64
2024/03/19 16:44:26;;;;;;;0.30;0.30;;;16.10;98.30;;;;;;4901953;29;20861;-63
2024/03/19 16:46:52;;;;;;;0.30;0.30;;;16.10;98.30;;;;;;4905237;29;20204;-63
2024/03/19 16:49:18;;;;;;;0.30;0.30;;;16.00;98.00;;;;;;4906325;29;20730;-62
2024/03/19 16:51:43;;;;;;;0.30;0.30;;;16.00;98.10;;;;;;4907612;29;20176;-62
2024/03/19 16:54:09;;;;;;;0.30;0.30;;;15.90;98.00;;;;;;4905942;29;20442;-61
2024/03/19 16:56:35;;;;;;;0.30;0.30;;;15.90;98.10;;;;;;4899061;29;20206;-65
2024/03/19 16:59:02;;;;;;;0.30;0.30;;;15.90;98.30;;;;;;4899638;29;20473;-65
2024/03/19 17:01:28;;;;;;;0.40;0.40;;;15.90;98.30;;;;;;4902002;29;20180;-63
2024/03/19 17:03:53;;;;;;;0.30;0.30;;;15.90;98.50;;;;;;4901759;29;20397;-63
2024/03/19 17:06:19;;;;;;;0.60;0.60;;;15.80;98.50;;;;;;4905110;29;20196;-61
2024/03/19 17:08:45;;;;;;;0.30;0.30;;;15.70;98.40;;;;;;4905116;29;20197;-61
2024/03/19 17:11:14;;;;;;;0.30;0.30;;;15.70;98.50;;;;;;4903104;29;20568;-60
2024/03/19 17:13:40;;;;;;;0.30;0.30;;;15.60;98.70;;;;;;4903498;29;20391;-62
2024/03/19 17:16:09;;;;;;;0.30;0.30;;;15.50;98.80;;;;;;4906412;29;20453;-60
2024/03/19 17:18:34;;;;;;;0.40;0.40;;;15.50;98.90;;;;;;4906613;29;20416;-61
2024/03/19 17:21:00;;;;;;;0.30;0.30;;;15.50;99.20;;;;;;4921553;29;20897;-61
2024/03/19 17:23:26;;;;;;;0.30;0.30;;;15.40;99.40;;;;;;4924107;29;20592;-61
2024/03/19 17:25:51;;;;;;;0.30;0.20;;;15.30;99.50;;;;;;4912753;29;20722;-61
2024/03/19 17:28:17;;;;;;;0.50;0.50;;;15.10;99.90;;;;;;4912791;29;20262;-61
2024/03/19 17:30:44;;;;;;;0.30;0.30;;;15.10;99.90;;;;;;4919566;29;20248;-61
2024/03/19 17:33:14;;;;;;;0.50;0.50;;;15.10;99.90;;;;;;4915072;29;20426;-60
2024/03/19 17:35:43;;;;;;;0.30;0.30;;;15.00;99.90;;;;;;4919123;29;20408;-61
2024/03/19 17:38:15;;;;;;;0.30;0.30;;;14.90;99.90;;;;;;4911980;29;20426;-61
2024/03/19 17:40:41;;;;;;;0.30;0.30;;;14.80;99.90;;;;;;4905311;29;20802;-59
2024/03/19 17:43:08;;;;;;;0.30;0.20;;;14.70;99.90;;;;;;4919755;29;20419;-62
2024/03/19 17:45:36;;;;;;;0.33;0.33;;;14.60;99.90;;;;;;4906798;29;20210;-60
2024/03/19 17:48:02;;;;;;;0.40;0.40;;;14.50;99.90;;;;;;4902617;29;20408;-61
2024/03/19 17:50:28;;;;;;;0.30;0.30;;;14.50;99.90;;;;;;4919787;29;20493;-64